createdAt,value
2023-06-21T00:01:05.158Z,10.83
2023-06-21T00:03:32.093Z,10.40
2023-06-21T00:05:58.883Z,11.02
2023-06-21T00:08:26.237Z,11.32
2023-06-21T00:10:54.036Z,11.07
2023-06-21T00:13:21.008Z,11.30
2023-06-21T00:15:48.071Z,11.53
2023-06-21T00:18:15.008Z,12.63
2023-06-21T00:20:41.804Z,12.33
2023-06-21T00:23:09.881Z,12.93
2023-06-21T00:25:39.174Z,12.18
2023-06-21T00:28:06.425Z,12.57
2023-06-21T00:30:33.510Z,12.15
2023-06-21T00:33:01.676Z,12.93
2023-06-21T00:35:28.859Z,12.37
2023-06-21T00:37:56.902Z,12.77
2023-06-21T00:40:34.740Z,13.00
2023-06-21T00:43:03.203Z,13.37
2023-06-21T00:45:30.373Z,13.30
2023-06-21T00:49:47.420Z,13.48
2023-06-21T00:52:15.249Z,12.27
2023-06-21T00:54:43.164Z,13.57
2023-06-21T00:57:13.053Z,14.40
2023-06-21T00:59:40.052Z,14.40
2023-06-21T01:02:07.163Z,14.03
2023-06-21T01:04:35.352Z,14.80
2023-06-21T01:07:28.746Z,14.63
2023-06-21T01:10:23.024Z,14.98
2023-06-21T01:12:49.924Z,14.20
2023-06-21T01:15:18.909Z,14.97
2023-06-21T01:17:52.409Z,14.27
2023-06-21T01:20:26.004Z,15.23
2023-06-21T01:22:53.605Z,15.90
2023-06-21T01:25:57.768Z,15.80
2023-06-21T01:28:32.242Z,16.77
2023-06-21T01:31:00.873Z,16.60
2023-06-21T01:33:29.498Z,16.57
2023-06-21T01:35:57.651Z,16.73
2023-06-21T01:38:25.563Z,16.77
2023-06-21T01:40:52.579Z,18.37
2023-06-21T01:43:20.196Z,16.27
2023-06-21T01:45:47.736Z,17.77
2023-06-21T01:48:15.886Z,17.23
2023-06-21T01:50:44.019Z,17.23
2023-06-21T01:53:15.158Z,16.50
2023-06-21T01:55:49.332Z,16.50
2023-06-21T01:58:17.267Z,17.03
2023-06-21T02:00:45.179Z,17.25
2023-06-21T02:03:16.166Z,17.48
2023-06-21T02:05:44.415Z,16.80
2023-06-21T02:08:17.415Z,17.00
2023-06-21T02:10:48.327Z,17.80
2023-06-21T02:13:15.798Z,16.70
2023-06-21T02:15:42.918Z,16.63
2023-06-21T02:18:13.721Z,15.57
2023-06-21T02:20:40.779Z,16.13
2023-06-21T02:23:08.184Z,15.93
2023-06-21T02:25:36.755Z,15.40
2023-06-21T02:28:04.668Z,15.37
2023-06-21T02:30:31.660Z,15.73
2023-06-21T02:32:58.553Z,15.50
2023-06-21T02:35:25.808Z,15.67
2023-06-21T02:37:52.862Z,15.03
2023-06-21T02:40:20.256Z,15.73
2023-06-21T02:42:47.072Z,16.63
2023-06-21T02:45:13.964Z,16.67
2023-06-21T02:47:40.702Z,17.17
2023-06-21T02:50:09.095Z,17.90
2023-06-21T02:52:36.002Z,17.53
2023-06-21T02:55:08.472Z,18.37
2023-06-21T02:57:35.691Z,18.70
2023-06-21T03:00:02.561Z,20.17
2023-06-21T03:02:35.181Z,19.70
2023-06-21T03:05:02.528Z,19.80
2023-06-21T03:07:29.321Z,20.57
2023-06-21T03:09:56.663Z,20.03
2023-06-21T03:12:23.445Z,19.57
2023-06-21T03:14:50.254Z,21.03
2023-06-21T03:17:17.246Z,18.27
2023-06-21T03:19:44.084Z,20.27
2023-06-21T03:22:10.962Z,19.73
2023-06-21T03:24:38.079Z,19.83
2023-06-21T03:27:05.437Z,20.93
2023-06-21T03:29:34.047Z,22.00
2023-06-21T03:32:01.029Z,22.60
2023-06-21T03:34:27.816Z,21.43
2023-06-21T03:36:54.720Z,20.20
2023-06-21T03:39:21.703Z,21.07
2023-06-21T03:41:48.638Z,20.17
2023-06-21T03:44:15.491Z,20.53
2023-06-21T03:46:42.421Z,19.67
2023-06-21T03:49:09.433Z,20.23
2023-06-21T03:51:36.507Z,19.50
2023-06-21T03:54:03.986Z,19.70
2023-06-21T03:56:30.804Z,19.13
2023-06-21T03:58:57.574Z,20.67
2023-06-21T04:01:25.559Z,18.77
2023-06-21T04:03:52.497Z,19.13
2023-06-21T04:06:19.338Z,17.70
2023-06-21T04:08:46.277Z,16.73
2023-06-21T04:11:13.029Z,18.47
2023-06-21T04:13:39.902Z,18.08
2023-06-21T04:16:06.932Z,16.65
2023-06-21T04:18:33.844Z,16.25
2023-06-21T04:21:00.578Z,15.45
2023-06-21T04:23:27.601Z,15.88
2023-06-21T04:25:54.448Z,15.55
2023-06-21T04:28:26.585Z,15.10
2023-06-21T04:30:53.854Z,14.77
2023-06-21T04:33:20.681Z,15.02
2023-06-21T04:35:47.435Z,14.25
2023-06-21T04:38:14.695Z,14.80
2023-06-21T04:40:43.515Z,15.00
2023-06-21T04:43:10.695Z,14.23
2023-06-21T04:45:37.847Z,14.88
2023-06-21T04:48:06.153Z,14.38
2023-06-21T04:50:33.696Z,14.00
2023-06-21T04:53:01.330Z,14.00
2023-06-21T04:55:29.298Z,14.18
2023-06-21T04:57:57.272Z,13.68
2023-06-21T05:00:24.376Z,15.43
2023-06-21T05:02:51.298Z,13.55
2023-06-21T05:05:18.516Z,14.02
2023-06-21T05:07:45.458Z,13.57
2023-06-21T05:10:12.826Z,12.98
2023-06-21T05:12:39.848Z,13.70
2023-06-21T05:15:07.547Z,13.13
2023-06-21T05:17:35.666Z,13.07
2023-06-21T05:20:04.885Z,12.57
2023-06-21T05:22:32.413Z,13.40
2023-06-21T05:24:59.241Z,12.93
2023-06-21T05:27:26.037Z,11.27
2023-06-21T05:29:53.095Z,12.60
2023-06-21T05:32:21.191Z,12.48
2023-06-21T05:34:48.283Z,11.45
2023-06-21T05:37:15.561Z,12.45
2023-06-21T05:39:44.551Z,12.27
2023-06-21T05:42:11.650Z,12.25
2023-06-21T05:44:39.154Z,11.80
2023-06-21T05:47:06.074Z,11.60
2023-06-21T05:49:33.351Z,12.13
2023-06-21T05:52:01.074Z,11.65
2023-06-21T05:54:27.968Z,11.95
2023-06-21T05:56:56.358Z,13.50
2023-06-21T05:59:23.377Z,12.93
2023-06-21T06:01:50.360Z,13.02
2023-06-21T06:04:17.326Z,13.95
2023-06-21T06:06:44.531Z,14.25
2023-06-21T06:09:13.027Z,15.73
2023-06-21T06:11:39.927Z,14.77
2023-06-21T06:14:06.998Z,14.88
2023-06-21T06:16:33.814Z,14.15
2023-06-21T06:19:00.706Z,15.65
2023-06-21T06:21:27.774Z,15.63
2023-06-21T06:23:55.001Z,15.68
2023-06-21T06:26:24.385Z,15.55
2023-06-21T06:28:52.510Z,14.63
2023-06-21T06:31:21.439Z,13.90
2023-06-21T06:33:48.331Z,14.82
2023-06-21T06:36:15.348Z,13.45
2023-06-21T06:38:42.217Z,14.60
2023-06-21T06:41:09.266Z,13.48
2023-06-21T06:43:36.216Z,14.70
2023-06-21T06:46:03.213Z,13.10
2023-06-21T06:48:30.187Z,13.20
2023-06-21T06:50:57.030Z,13.35
2023-06-21T06:53:23.958Z,13.98
2023-06-21T06:55:52.741Z,14.60
2023-06-21T06:58:20.394Z,15.02
2023-06-21T07:00:47.439Z,14.15
2023-06-21T07:03:15.306Z,14.65
2023-06-21T07:05:48.614Z,14.15
2023-06-21T07:08:15.667Z,14.73
2023-06-21T07:10:42.509Z,13.60
2023-06-21T07:13:09.337Z,14.88
2023-06-21T07:15:36.335Z,13.55
2023-06-21T07:18:03.414Z,12.90
2023-06-21T07:20:31.392Z,12.10
2023-06-21T07:22:58.797Z,12.27
2023-06-21T07:25:25.588Z,12.88
2023-06-21T07:27:52.652Z,11.77
2023-06-21T07:30:23.847Z,11.85
2023-06-21T07:32:51.686Z,11.35
2023-06-21T07:35:19.024Z,11.63
2023-06-21T07:37:47.262Z,11.65
2023-06-21T07:40:14.665Z,12.75
2023-06-21T07:42:42.128Z,11.85
2023-06-21T07:45:10.455Z,11.52
2023-06-21T07:47:37.653Z,11.60
2023-06-21T07:52:36.245Z,12.38
2023-06-21T07:55:06.637Z,11.32
2023-06-21T07:57:33.969Z,11.57
2023-06-21T08:00:09.973Z,12.13
2023-06-21T08:02:36.785Z,11.57
2023-06-21T08:05:03.854Z,12.43
2023-06-21T08:07:30.761Z,11.95
2023-06-21T08:09:57.685Z,12.90
2023-06-21T08:12:24.444Z,11.88
2023-06-21T08:14:51.405Z,11.18
2023-06-21T08:17:18.325Z,11.52
2023-06-21T08:19:45.145Z,11.30
2023-06-21T08:22:12.044Z,11.10
2023-06-21T08:24:39.184Z,10.52
2023-06-21T08:27:06.257Z,10.70
2023-06-21T08:29:33.300Z,11.48
2023-06-21T08:32:00.089Z,12.65
2023-06-21T08:34:27.090Z,11.30
2023-06-21T08:36:54.048Z,11.63
2023-06-21T08:39:20.924Z,11.32
2023-06-21T08:41:48.061Z,10.75
2023-06-21T08:44:15.101Z,12.10
2023-06-21T08:46:43.328Z,11.13
2023-06-21T08:49:18.203Z,10.15
2023-06-21T08:51:46.754Z,10.65
2023-06-21T08:54:15.832Z,11.38
2023-06-21T08:56:50.408Z,11.25
2023-06-21T08:59:26.940Z,10.32
2023-06-21T09:02:13.872Z,10.10
2023-06-21T09:04:46.523Z,9.98
2023-06-21T09:07:15.379Z,11.10
2023-06-21T09:09:44.705Z,10.50
2023-06-21T09:12:14.766Z,11.38
2023-06-21T09:14:42.143Z,11.07
2023-06-21T09:17:09.524Z,11.50
2023-06-21T09:19:41.268Z,11.38
2023-06-21T09:22:08.388Z,10.70
2023-06-21T09:24:35.357Z,11.35
2023-06-21T09:27:02.318Z,10.88
2023-06-21T09:29:29.184Z,9.98
2023-06-21T09:31:57.714Z,9.45
2023-06-21T09:34:24.705Z,9.20
2023-06-21T09:36:51.773Z,9.65
2023-06-21T09:39:18.538Z,9.25
2023-06-21T09:41:45.775Z,9.02
2023-06-21T09:44:12.668Z,8.68
2023-06-21T09:46:41.491Z,8.40
2023-06-21T09:49:12.707Z,7.70
2023-06-21T09:51:43.702Z,8.07
2023-06-21T09:54:10.621Z,7.50
2023-06-21T09:56:38.912Z,7.45
2023-06-21T09:59:19.723Z,6.85
2023-06-21T10:01:49.735Z,7.88
2023-06-21T10:04:18.135Z,8.02
2023-06-21T10:06:52.477Z,8.40
2023-06-21T10:09:20.056Z,8.10
2023-06-21T10:11:47.264Z,7.70
2023-06-21T10:14:20.744Z,6.93
2023-06-21T10:16:54.518Z,6.75
2023-06-21T10:19:26.376Z,6.85
2023-06-21T10:22:21.135Z,7.07
2023-06-21T10:24:50.627Z,7.28
2023-06-21T10:27:19.644Z,7.07
2023-06-21T10:29:53.254Z,6.68
2023-06-21T10:32:22.443Z,7.38
2023-06-21T10:35:00.471Z,7.50
2023-06-21T10:37:30.682Z,7.57
2023-06-21T10:40:10.088Z,7.00
2023-06-21T10:42:40.046Z,7.50
2023-06-21T10:45:09.557Z,7.28
2023-06-21T10:47:38.358Z,7.78
2023-06-21T10:50:10.606Z,7.90
2023-06-21T10:52:38.729Z,8.73
2023-06-21T10:55:06.010Z,8.27
2023-06-21T10:57:35.098Z,8.25
2023-06-21T11:00:05.153Z,7.75
2023-06-21T11:02:32.078Z,8.15
2023-06-21T11:05:18.683Z,8.65
2023-06-21T11:07:55.653Z,8.75
2023-06-21T11:10:37.540Z,7.85
2023-06-21T11:13:04.444Z,8.02
2023-06-21T11:15:32.793Z,8.10
2023-06-21T11:18:07.535Z,10.07
2023-06-21T11:20:47.901Z,7.93
2023-06-21T11:23:28.867Z,6.97
2023-06-21T11:26:15.526Z,6.63
2023-06-21T11:28:50.213Z,6.13
2023-06-21T11:31:24.028Z,6.25
2023-06-21T11:33:56.598Z,6.85
2023-06-21T11:36:28.557Z,6.13
2023-06-21T11:39:21.552Z,6.18
2023-06-21T11:41:48.287Z,6.45
2023-06-21T11:44:21.505Z,6.57
2023-06-21T11:46:49.037Z,6.20
2023-06-21T11:49:16.117Z,6.35
2023-06-21T11:52:04.018Z,6.68
2023-06-21T11:54:36.776Z,6.38
2023-06-21T11:57:08.049Z,5.80
2023-06-21T11:59:36.048Z,6.20
2023-06-21T12:02:18.025Z,5.93
2023-06-21T12:04:45.828Z,6.35
2023-06-21T12:07:13.014Z,5.93
2023-06-21T12:09:40.647Z,5.63
2023-06-21T12:12:08.120Z,5.32
2023-06-21T12:14:37.238Z,6.00
2023-06-21T12:17:05.020Z,6.40
2023-06-21T12:19:35.011Z,6.15
2023-06-21T12:22:03.937Z,7.10
2023-06-21T12:24:33.758Z,6.22
2023-06-21T12:27:04.740Z,6.03
2023-06-21T12:29:32.218Z,6.40
2023-06-21T12:31:59.356Z,6.03
2023-06-21T12:34:26.750Z,6.78
2023-06-21T12:36:56.043Z,6.00
2023-06-21T12:39:24.332Z,6.00
2023-06-21T12:41:51.338Z,6.60
2023-06-21T12:44:23.160Z,6.22
2023-06-21T12:46:51.793Z,6.47
2023-06-21T12:49:18.850Z,6.43
2023-06-21T12:51:47.591Z,6.07
2023-06-21T12:54:21.908Z,6.60
2023-06-21T12:56:54.188Z,6.55
2023-06-21T12:59:21.596Z,6.68
2023-06-21T13:01:48.457Z,7.35
2023-06-21T13:04:16.708Z,7.43
2023-06-21T13:06:44.363Z,6.93
2023-06-21T13:09:12.381Z,7.00
2023-06-21T13:11:40.335Z,6.93
2023-06-21T13:14:08.087Z,7.00
2023-06-21T13:16:35.460Z,6.93
2023-06-21T13:19:02.265Z,6.60
2023-06-21T13:21:29.770Z,7.57
2023-06-21T13:24:00.314Z,7.28
2023-06-21T13:26:28.524Z,8.20
2023-06-21T13:28:55.655Z,7.55
2023-06-21T13:31:24.715Z,7.20
2023-06-21T13:33:52.074Z,7.22
2023-06-21T13:36:19.306Z,7.55
2023-06-21T13:38:46.279Z,7.72
2023-06-21T13:41:13.338Z,7.13
2023-06-21T13:43:40.296Z,7.38
2023-06-21T13:46:07.219Z,7.32
2023-06-21T13:48:34.623Z,7.20
2023-06-21T13:51:01.474Z,6.93
2023-06-21T13:53:29.079Z,7.10
2023-06-21T13:55:56.413Z,6.78
2023-06-21T13:58:23.258Z,6.72
2023-06-21T14:00:50.372Z,7.10
2023-06-21T14:03:17.558Z,7.20
2023-06-21T14:05:44.494Z,7.45
2023-06-21T14:08:11.233Z,6.60
2023-06-21T14:10:38.293Z,6.50
2023-06-21T14:13:05.452Z,6.03
2023-06-21T14:15:32.363Z,6.10
2023-06-21T14:18:04.796Z,6.85
2023-06-21T14:20:32.206Z,6.82
2023-06-21T14:22:59.423Z,6.32
2023-06-21T14:25:26.504Z,6.43
2023-06-21T14:27:53.481Z,5.85
2023-06-21T14:30:20.474Z,5.53
2023-06-21T14:32:48.513Z,5.55
2023-06-21T14:35:15.619Z,5.95
2023-06-21T14:37:45.251Z,5.50
2023-06-21T14:40:12.496Z,4.85
2023-06-21T14:42:39.407Z,5.53
2023-06-21T14:45:07.046Z,4.97
2023-06-21T14:47:33.801Z,5.40
2023-06-21T14:50:05.312Z,5.20
2023-06-21T14:52:32.989Z,5.88
2023-06-21T14:54:59.863Z,6.43
2023-06-21T14:57:27.097Z,5.55
2023-06-21T14:59:54.009Z,6.35
2023-06-21T15:02:20.952Z,6.35
2023-06-21T15:04:47.948Z,6.38
2023-06-21T15:07:19.162Z,6.43
2023-06-21T15:09:47.135Z,6.47
2023-06-21T15:12:14.428Z,7.10
2023-06-21T15:17:08.137Z,5.95
2023-06-21T15:19:35.045Z,5.30
2023-06-21T15:22:01.993Z,4.93
2023-06-21T15:24:28.748Z,5.68
2023-06-21T15:26:55.924Z,5.75
2023-06-21T15:29:22.885Z,5.70
2023-06-21T15:31:49.643Z,5.40
2023-06-21T15:34:17.100Z,6.15
2023-06-21T15:36:44.761Z,6.30
2023-06-21T15:39:11.651Z,5.85
2023-06-21T15:41:39.084Z,5.47
2023-06-21T15:44:06.743Z,5.68
2023-06-21T15:46:34.381Z,5.82
2023-06-21T15:49:01.816Z,5.25
2023-06-21T15:51:28.928Z,5.32
2023-06-21T15:53:57.694Z,5.15
2023-06-21T15:56:26.243Z,5.50
2023-06-21T15:58:53.997Z,5.75
2023-06-21T16:01:22.174Z,5.18
2023-06-21T16:03:50.834Z,4.43
2023-06-21T16:06:18.580Z,4.05
2023-06-21T16:08:46.988Z,4.35
2023-06-21T16:11:14.142Z,4.50
2023-06-21T16:13:47.463Z,5.20
2023-06-21T16:16:16.365Z,5.70
2023-06-21T16:18:45.571Z,5.70
2023-06-21T16:21:15.086Z,5.78
2023-06-21T16:23:43.093Z,4.80
2023-06-21T16:26:10.050Z,5.68
2023-06-21T16:28:36.852Z,6.18
2023-06-21T16:31:04.415Z,5.40
2023-06-21T16:33:31.414Z,4.18
2023-06-21T16:35:58.440Z,4.05
2023-06-21T16:38:25.625Z,4.10
2023-06-21T16:40:53.134Z,4.30
2023-06-21T16:43:20.119Z,3.85
2023-06-21T16:45:47.324Z,3.65
2023-06-21T16:48:14.290Z,3.47
2023-06-21T16:50:41.279Z,3.97
2023-06-21T16:53:08.754Z,4.30
2023-06-21T16:55:35.924Z,3.95
2023-06-21T16:58:03.064Z,4.13
2023-06-21T17:00:30.168Z,4.93
2023-06-21T17:02:59.424Z,4.50
2023-06-21T17:05:28.682Z,4.10
2023-06-21T17:07:55.824Z,5.28
2023-06-21T17:10:22.649Z,4.80
2023-06-21T17:12:50.038Z,4.88
2023-06-21T17:15:17.207Z,4.85
2023-06-21T17:17:45.024Z,5.07
2023-06-21T17:20:12.395Z,5.30
2023-06-21T17:22:39.412Z,4.93
2023-06-21T17:25:06.831Z,5.05
2023-06-21T17:27:34.588Z,4.82
2023-06-21T17:30:01.478Z,6.05
2023-06-21T17:32:28.477Z,5.45
2023-06-21T17:34:55.879Z,4.93
2023-06-21T17:37:22.943Z,4.22
2023-06-21T17:39:49.877Z,4.55
2023-06-21T17:42:16.985Z,4.30
2023-06-21T17:44:43.763Z,4.45
2023-06-21T17:47:11.345Z,4.68
2023-06-21T17:49:38.213Z,4.90
2023-06-21T17:52:05.372Z,5.18
2023-06-21T17:54:33.572Z,5.22
2023-06-21T17:57:00.652Z,5.15
2023-06-21T17:59:27.441Z,5.80
2023-06-21T18:01:55.132Z,7.00
2023-06-21T18:04:22.058Z,5.68
2023-06-21T18:06:49.010Z,5.57
2023-06-21T18:09:16.287Z,5.70
2023-06-21T18:11:46.105Z,4.75
2023-06-21T18:14:13.169Z,4.50
2023-06-21T18:16:40.566Z,4.57
2023-06-21T18:19:07.637Z,5.07
2023-06-21T18:21:34.488Z,4.60
2023-06-21T18:24:11.873Z,5.50
2023-06-21T18:26:38.992Z,6.63
2023-06-21T18:29:05.816Z,5.30
2023-06-21T18:31:33.118Z,5.68
2023-06-21T18:34:00.709Z,5.43
2023-06-21T18:36:27.925Z,5.00
2023-06-21T18:38:56.171Z,4.85
2023-06-21T18:41:22.973Z,4.45
2023-06-21T18:43:49.824Z,5.22
2023-06-21T18:46:17.353Z,4.72
2023-06-21T18:48:45.377Z,4.95
2023-06-21T18:51:12.701Z,4.78
2023-06-21T18:53:39.730Z,4.30
2023-06-21T18:56:06.537Z,4.40
2023-06-21T18:58:33.322Z,4.57
2023-06-21T19:01:00.226Z,5.15
2023-06-21T19:03:27.322Z,5.03
2023-06-21T19:05:55.130Z,5.05
2023-06-21T19:08:22.104Z,5.18
2023-06-21T19:10:48.910Z,6.00
2023-06-21T19:13:15.680Z,5.30
2023-06-21T19:15:43.075Z,4.75
2023-06-21T19:18:09.971Z,5.70
2023-06-21T19:20:37.010Z,6.00
2023-06-21T19:23:04.285Z,5.55
2023-06-21T19:25:31.398Z,5.10
2023-06-21T19:27:58.351Z,4.90
2023-06-21T19:30:25.292Z,5.18
2023-06-21T19:32:52.135Z,4.85
2023-06-21T19:35:21.798Z,4.80
2023-06-21T19:37:49.615Z,5.13
2023-06-21T19:40:16.708Z,4.90
2023-06-21T19:42:45.958Z,5.35
2023-06-21T19:45:14.150Z,5.28
2023-06-21T19:47:41.177Z,5.25
2023-06-21T19:50:08.944Z,5.70
2023-06-21T19:52:36.555Z,5.10
2023-06-21T19:55:04.548Z,4.97
2023-06-21T19:57:31.545Z,5.32
2023-06-21T19:59:58.688Z,5.75
2023-06-21T20:02:25.743Z,5.47
2023-06-21T20:04:57.343Z,4.88
2023-06-21T20:07:24.997Z,5.30
2023-06-21T20:09:52.935Z,5.55
2023-06-21T20:12:20.061Z,5.90
2023-06-21T20:14:47.196Z,5.38
2023-06-21T20:17:14.270Z,5.38
2023-06-21T20:19:41.181Z,6.00
2023-06-21T20:22:08.227Z,5.57
2023-06-21T20:24:35.406Z,5.68
2023-06-21T20:27:03.433Z,5.65
2023-06-21T20:29:30.467Z,5.70
2023-06-21T20:31:57.816Z,5.78
2023-06-21T20:34:24.811Z,6.07
2023-06-21T20:36:51.805Z,7.20
2023-06-21T20:39:19.147Z,7.38
2023-06-21T20:41:47.644Z,6.18
2023-06-21T20:44:16.057Z,5.90
2023-06-21T20:46:44.166Z,5.53
2023-06-21T20:49:11.221Z,5.70
2023-06-21T20:51:38.545Z,5.25
2023-06-21T20:54:12.748Z,5.90
2023-06-21T20:56:40.434Z,6.22
2023-06-21T20:59:07.518Z,5.85
2023-06-21T21:01:40.399Z,5.13
2023-06-21T21:04:09.696Z,4.85
2023-06-21T21:06:37.184Z,4.93
2023-06-21T21:09:06.034Z,5.38
2023-06-21T21:11:32.808Z,5.30
2023-06-21T21:14:02.844Z,5.50
2023-06-21T21:16:29.985Z,5.40
2023-06-21T21:18:56.810Z,5.15
2023-06-21T21:21:24.029Z,5.20
2023-06-21T21:23:52.095Z,4.90
2023-06-21T21:26:18.968Z,5.30
2023-06-21T21:28:45.962Z,4.80
2023-06-21T21:31:13.124Z,4.72
2023-06-21T21:33:39.965Z,4.90
2023-06-21T21:36:07.154Z,4.57
2023-06-21T21:38:34.569Z,4.50
2023-06-21T21:41:01.435Z,4.72
2023-06-21T21:43:28.948Z,5.00
2023-06-21T21:45:55.784Z,4.82
2023-06-21T21:48:22.788Z,4.80
2023-06-21T21:50:49.543Z,4.90
2023-06-21T21:53:16.860Z,5.00
2023-06-21T21:55:44.810Z,5.00
2023-06-21T21:58:12.488Z,5.43
2023-06-21T22:00:39.814Z,4.93
2023-06-21T22:03:07.075Z,4.80
2023-06-21T22:05:34.280Z,4.77
2023-06-21T22:08:01.337Z,4.65
2023-06-21T22:10:38.734Z,4.72
2023-06-21T22:13:10.998Z,4.97
2023-06-21T22:15:51.982Z,5.17
2023-06-21T22:18:27.068Z,4.35
2023-06-21T22:20:58.345Z,5.10
2023-06-21T22:23:33.717Z,4.70
2023-06-21T22:26:02.611Z,4.32
2023-06-21T22:28:30.041Z,4.50
2023-06-21T22:30:58.172Z,4.70
2023-06-21T22:33:25.963Z,4.80
2023-06-21T22:35:53.045Z,4.27
2023-06-21T22:38:20.293Z,4.40
2023-06-21T22:40:48.616Z,4.30
2023-06-21T22:43:18.122Z,4.53
2023-06-21T22:45:45.537Z,4.57
2023-06-21T22:48:14.596Z,4.32
2023-06-21T22:50:44.220Z,4.50
2023-06-21T22:53:11.828Z,4.63
2023-06-21T22:55:38.603Z,5.00
2023-06-21T22:58:06.041Z,4.70
2023-06-21T23:00:33.124Z,4.70
2023-06-21T23:03:00.309Z,4.90
2023-06-21T23:05:28.590Z,4.38
2023-06-21T23:07:55.647Z,4.10
2023-06-21T23:10:22.664Z,4.40
2023-06-21T23:12:50.907Z,4.22
2023-06-21T23:15:19.653Z,4.03
2023-06-21T23:17:47.138Z,4.20
2023-06-21T23:20:14.626Z,4.07
2023-06-21T23:22:43.258Z,4.47
2023-06-21T23:25:13.718Z,4.20
2023-06-21T23:27:43.667Z,4.17
2023-06-21T23:30:35.380Z,4.20
2023-06-21T23:33:04.281Z,4.93
2023-06-21T23:35:38.469Z,4.27
2023-06-21T23:38:06.973Z,4.40
2023-06-21T23:40:36.979Z,4.03
2023-06-21T23:43:04.411Z,4.00
2023-06-21T23:45:31.493Z,4.07
2023-06-21T23:47:58.578Z,4.30
2023-06-21T23:50:25.535Z,3.63
2023-06-21T23:52:52.464Z,4.35
2023-06-21T23:55:19.335Z,4.50
2023-06-21T23:57:46.607Z,4.65
